Bromptonville, Canada
Current Conditions -  °F | °C
As of 7:53 PM on Monday 24 Nov 2014 (Local Time) from CYSC Reporting Station
Light Rain Light Rain  
Wind Chill: 57°   Ceiling: 4200
Heat Index: 57°   Visibility: 7mi
Dew Point: 55°   Wind: 9mph
Humidity: 94%   Direction: 190°S
Pressure: 29.39"   Gusts: NA
Location:  45.47°N, 71.94°W
Report Text: CYSC 250053Z AUTO 19008KT 150V280 7SM -RA SCT031 BKN042 BKN065 OVC076 14/13 A2939 RMK PRESRR SLP957 DENSITY ALT 1400FT
Loading
Personal Weather Stations






























Interactive Weather Map New forecast layout! Learn more

10-Day Weather Forecast

Advertisements
Track Severe Weather on mobile